createdAt,value
2022-11-12T00:08:19.074Z,102348.38
2022-11-12T00:18:40.817Z,102348.34
2022-11-12T00:29:04.073Z,102349.97
2022-11-12T00:39:25.932Z,102360.28
2022-11-12T00:49:49.012Z,102355.56
2022-11-12T01:00:17.393Z,102353.31
2022-11-12T01:10:40.047Z,102355.63
2022-11-12T01:21:03.024Z,102357.06
2022-11-12T01:31:28.328Z,102358.53
2022-11-12T01:41:50.235Z,102366.31
2022-11-12T01:52:18.516Z,102371.44
2022-11-12T02:02:41.478Z,102371.47
2022-11-12T02:13:22.114Z,102360.84
2022-11-12T02:23:45.263Z,102362.75
2022-11-12T02:34:06.756Z,102379.81
2022-11-12T02:44:31.298Z,102369.50
2022-11-12T02:54:53.450Z,102365.06
2022-11-12T03:05:16.279Z,102370.34
2022-11-12T03:15:37.843Z,102363.16
2022-11-12T03:26:04.836Z,102355.16
2022-11-12T03:36:26.761Z,102344.22
2022-11-12T03:46:50.042Z,102339.25
2022-11-12T03:57:12.490Z,102334.06
2022-11-12T04:07:52.922Z,102325.25
2022-11-12T04:18:32.285Z,102323.25
2022-11-12T04:29:12.934Z,102325.78
2022-11-12T04:39:34.902Z,102317.72
2022-11-12T04:49:57.936Z,102316.97
2022-11-12T05:00:20.031Z,102310.78
2022-11-12T05:10:43.214Z,102302.41
2022-11-12T05:21:25.200Z,102293.75
2022-11-12T05:31:48.666Z,102284.31
2022-11-12T05:42:13.497Z,102284.50
2022-11-12T05:52:37.384Z,102287.72
2022-11-12T06:02:59.424Z,102281.66
2022-11-12T06:13:24.232Z,102284.13
2022-11-12T06:23:46.715Z,102291.91
2022-11-12T06:34:10.061Z,102311.59
2022-11-12T06:44:31.534Z,102317.56
2022-11-12T06:54:54.960Z,102315.09
2022-11-12T07:05:16.800Z,102316.84
2022-11-12T07:15:39.954Z,102325.19
2022-11-12T07:26:04.096Z,102343.19
2022-11-12T07:36:28.018Z,102337.13
2022-11-12T07:46:49.570Z,102324.78
2022-11-12T07:57:12.930Z,102339.69
2022-11-12T08:07:34.553Z,102341.81
2022-11-12T08:17:57.523Z,102331.94
2022-11-12T08:28:19.156Z,102337.34
2022-11-12T08:38:43.059Z,102328.97
2022-11-12T08:49:07.145Z,102347.06
2022-11-12T08:59:30.439Z,102347.28
2022-11-12T09:09:52.092Z,102358.47
2022-11-12T09:20:15.807Z,102352.56
2022-11-12T09:30:38.305Z,102361.22
2022-11-12T09:41:16.249Z,102352.75
2022-11-12T09:51:42.659Z,102353.72
2022-11-12T10:02:26.273Z,102345.31
2022-11-12T10:13:07.008Z,102336.78
2022-11-12T10:23:42.368Z,102318.00
2022-11-12T10:34:16.117Z,102320.81
2022-11-12T10:44:40.859Z,102306.31
2022-11-12T10:55:08.860Z,102301.19
2022-11-12T11:05:35.629Z,102290.88
2022-11-12T11:16:01.917Z,102290.06
2022-11-12T11:26:33.950Z,102287.47
2022-11-12T11:37:02.594Z,102265.09
2022-11-12T11:47:57.686Z,102241.72
2022-11-12T11:58:40.762Z,102242.50
2022-11-12T12:09:24.904Z,102257.88
2022-11-12T12:19:58.757Z,102247.25
2022-11-12T12:30:24.917Z,102229.13
2022-11-12T12:40:50.130Z,102212.69
2022-11-12T12:51:14.288Z,102223.81
2022-11-12T13:01:37.485Z,102208.31
2022-11-12T13:12:18.228Z,102195.31
2022-11-12T13:22:52.577Z,102196.00
2022-11-12T13:33:27.208Z,102179.44
2022-11-12T13:43:49.904Z,102176.09
2022-11-12T13:54:36.239Z,102177.78
2022-11-12T14:04:58.780Z,102185.63
2022-11-12T14:15:43.947Z,102174.38
2022-11-12T14:26:05.681Z,102177.06
2022-11-12T14:36:30.770Z,102166.00
2022-11-12T14:46:55.837Z,102160.81
2022-11-12T14:57:24.169Z,102150.53
2022-11-12T15:07:55.217Z,102151.44
2022-11-12T15:18:20.580Z,102139.47
2022-11-12T15:28:42.448Z,102129.28
2022-11-12T15:39:14.473Z,102119.84
2022-11-12T15:49:36.173Z,102118.22
2022-11-12T16:00:07.865Z,102105.38
2022-11-12T16:10:30.477Z,102100.25
2022-11-12T16:20:53.636Z,102101.13
2022-11-12T16:31:15.941Z,102100.38
2022-11-12T16:41:39.068Z,102098.72
2022-11-12T16:52:00.690Z,102100.50
2022-11-12T17:02:23.600Z,102091.03
2022-11-12T17:12:49.245Z,102097.19
2022-11-12T17:23:12.097Z,102099.78
2022-11-12T17:33:34.624Z,102097.19
2022-11-12T17:43:58.172Z,102094.66
2022-11-12T17:54:20.000Z,102097.28
2022-11-12T18:04:43.065Z,102090.38
2022-11-12T18:15:05.275Z,102093.00
2022-11-12T18:25:28.895Z,102086.16
2022-11-12T18:36:01.464Z,102093.06
2022-11-12T18:46:25.056Z,102089.63
2022-11-12T18:56:47.887Z,102076.84
2022-11-12T19:07:10.618Z,102062.13
2022-11-12T19:17:32.926Z,102054.44
2022-11-12T19:27:56.055Z,102054.53
2022-11-12T19:38:17.689Z,102042.50
2022-11-12T19:48:40.976Z,102039.94
2022-11-12T19:59:02.968Z,102040.84
2022-11-12T20:09:26.021Z,102040.84
2022-11-12T20:19:47.699Z,102027.94
2022-11-12T20:30:11.989Z,102024.50
2022-11-12T20:40:34.133Z,102011.59
2022-11-12T20:51:22.544Z,102006.53
2022-11-12T21:01:45.975Z,102009.94
2022-11-12T21:12:09.111Z,101997.91
2022-11-12T21:22:30.693Z,101988.47
2022-11-12T21:32:53.631Z,101992.75
2022-11-12T21:43:15.613Z,101985.91
2022-11-12T21:53:39.518Z,101981.59
2022-11-12T22:04:05.122Z,101974.81
2022-11-12T22:14:28.413Z,101965.34
2022-11-12T22:24:50.187Z,101968.81
2022-11-12T22:35:13.401Z,101950.78
2022-11-12T22:45:36.253Z,101947.41
2022-11-12T22:56:04.145Z,101949.97
2022-11-12T23:06:26.956Z,101946.53
2022-11-12T23:16:50.050Z,101922.53
2022-11-12T23:27:11.707Z,101925.06
2022-11-12T23:37:34.870Z,101928.50
2022-11-12T23:47:57.325Z,101935.34
2022-11-12T23:58:20.253Z,101921.66
